createdAt,value
2023-04-29T00:01:32.402Z,6.20
2023-04-29T00:03:59.413Z,6.20
2023-04-29T00:06:26.553Z,6.20
2023-04-29T00:08:53.425Z,6.20
2023-04-29T00:11:20.508Z,6.20
2023-04-29T00:13:47.303Z,6.20
2023-04-29T00:16:14.145Z,6.20
2023-04-29T00:18:40.930Z,6.20
2023-04-29T00:21:07.721Z,6.20
2023-04-29T00:23:35.106Z,6.30
2023-04-29T00:26:02.104Z,6.30
2023-04-29T00:28:28.953Z,6.30
2023-04-29T00:30:56.299Z,6.30
2023-04-29T00:33:23.408Z,6.20
2023-04-29T00:35:50.397Z,6.20
2023-04-29T00:38:17.213Z,6.20
2023-04-29T00:40:44.836Z,6.20
2023-04-29T00:43:11.717Z,6.20
2023-04-29T00:45:38.574Z,6.20
2023-04-29T00:48:05.524Z,6.20
2023-04-29T00:50:32.496Z,6.20
2023-04-29T00:53:00.147Z,6.20
2023-04-29T00:55:27.359Z,6.20
2023-04-29T00:57:54.301Z,6.20
2023-04-29T01:00:21.277Z,6.20
2023-04-29T01:02:50.189Z,6.20
2023-04-29T01:05:18.085Z,6.20
2023-04-29T01:07:51.175Z,6.20
2023-04-29T01:10:41.085Z,6.20
2023-04-29T01:13:07.928Z,6.20
2023-04-29T01:15:59.675Z,6.20
2023-04-29T01:18:30.451Z,6.20
2023-04-29T01:20:59.309Z,6.20
2023-04-29T01:23:27.531Z,6.20
2023-04-29T01:25:54.508Z,6.20
2023-04-29T01:28:39.485Z,6.30
2023-04-29T01:31:23.288Z,6.30
2023-04-29T01:34:14.479Z,6.30
2023-04-29T01:36:50.221Z,6.30
2023-04-29T01:39:27.087Z,6.30
2023-04-29T01:42:02.490Z,6.30
2023-04-29T01:44:31.778Z,6.30
2023-04-29T01:46:59.652Z,6.30
2023-04-29T01:49:27.653Z,6.30
2023-04-29T01:51:54.671Z,6.30
2023-04-29T01:54:24.534Z,6.30
2023-04-29T01:56:52.187Z,6.30
2023-04-29T01:59:20.015Z,6.30
2023-04-29T02:01:47.380Z,6.40
2023-04-29T02:04:14.169Z,6.40
2023-04-29T02:06:40.989Z,6.40
2023-04-29T02:09:07.953Z,6.40
2023-04-29T02:11:34.719Z,6.40
2023-04-29T02:14:01.579Z,6.40
2023-04-29T02:16:28.392Z,6.40
2023-04-29T02:18:55.271Z,6.40
2023-04-29T02:21:22.006Z,6.40
2023-04-29T02:23:48.778Z,6.50
2023-04-29T02:26:15.655Z,6.50
2023-04-29T02:28:42.612Z,6.50
2023-04-29T02:31:09.352Z,6.40
2023-04-29T02:33:36.177Z,6.50
2023-04-29T02:36:03.062Z,6.50
2023-04-29T02:38:29.867Z,6.50
2023-04-29T02:40:57.185Z,6.50
2023-04-29T02:43:24.162Z,6.50
2023-04-29T02:45:50.979Z,6.50
2023-04-29T02:48:18.089Z,6.60
2023-04-29T02:50:44.806Z,6.50
2023-04-29T02:53:11.751Z,6.60
2023-04-29T02:55:38.695Z,6.60
2023-04-29T02:58:05.750Z,6.60
2023-04-29T03:00:32.682Z,6.60
2023-04-29T03:03:01.964Z,6.60
2023-04-29T03:05:28.939Z,6.60
2023-04-29T03:07:55.770Z,6.70
2023-04-29T03:10:22.648Z,6.70
2023-04-29T03:12:49.507Z,6.70
2023-04-29T03:15:17.118Z,6.70
2023-04-29T03:17:45.641Z,6.80
2023-04-29T03:20:12.873Z,6.80
2023-04-29T03:22:39.805Z,6.80
2023-04-29T03:25:07.201Z,6.80
2023-04-29T03:27:34.116Z,6.80
2023-04-29T03:30:00.894Z,6.80
2023-04-29T03:32:27.741Z,6.80
2023-04-29T03:34:55.294Z,6.90
2023-04-29T03:37:22.052Z,6.90
2023-04-29T03:39:48.814Z,6.90
2023-04-29T03:42:15.767Z,6.90
2023-04-29T03:44:42.593Z,6.90
2023-04-29T03:47:09.368Z,6.90
2023-04-29T03:49:36.231Z,6.90
2023-04-29T03:52:04.765Z,6.90
2023-04-29T03:54:31.947Z,7.00
2023-04-29T03:56:58.740Z,7.00
2023-04-29T03:59:25.595Z,7.00
2023-04-29T04:01:54.181Z,7.00
2023-04-29T04:04:22.025Z,7.00
2023-04-29T04:06:52.020Z,7.00
2023-04-29T04:09:18.916Z,7.10
2023-04-29T04:11:46.156Z,7.10
2023-04-29T04:14:13.056Z,7.10
2023-04-29T04:16:40.207Z,7.10
2023-04-29T04:19:07.110Z,7.10
2023-04-29T04:21:34.671Z,7.20
2023-04-29T04:24:01.520Z,7.20
2023-04-29T04:26:28.300Z,7.20
2023-04-29T04:28:55.074Z,7.20
2023-04-29T04:31:21.823Z,7.30
2023-04-29T04:33:48.590Z,7.30
2023-04-29T04:36:15.346Z,7.40
2023-04-29T04:38:45.345Z,7.40
2023-04-29T04:41:12.508Z,7.50
2023-04-29T04:43:41.081Z,7.50
2023-04-29T04:46:12.344Z,7.50
2023-04-29T04:48:39.677Z,7.50
2023-04-29T04:51:13.675Z,7.60
2023-04-29T04:53:41.061Z,7.60
2023-04-29T04:56:08.397Z,7.60
2023-04-29T04:58:35.168Z,7.60
2023-04-29T05:01:02.259Z,7.60
2023-04-29T05:03:29.223Z,7.60
2023-04-29T05:06:00.751Z,7.60
2023-04-29T05:08:27.618Z,7.70
2023-04-29T05:10:54.577Z,7.70
2023-04-29T05:13:21.508Z,7.80
2023-04-29T05:15:48.370Z,7.80
2023-04-29T05:18:15.299Z,7.80
2023-04-29T05:20:42.111Z,7.90
2023-04-29T05:23:10.112Z,7.90
2023-04-29T05:25:36.878Z,8.00
2023-04-29T05:28:04.624Z,7.90
2023-04-29T05:30:31.470Z,7.90
2023-04-29T05:32:58.745Z,7.90
2023-04-29T05:35:25.734Z,7.90
2023-04-29T05:37:52.518Z,7.80
2023-04-29T05:40:19.404Z,7.80
2023-04-29T05:42:47.103Z,7.80
2023-04-29T05:45:14.062Z,7.80
2023-04-29T05:47:40.857Z,7.80
2023-04-29T05:50:08.144Z,7.70
2023-04-29T05:52:34.920Z,7.80
2023-04-29T05:55:01.699Z,7.80
2023-04-29T05:57:28.646Z,7.80
2023-04-29T05:59:55.571Z,7.80
2023-04-29T06:02:22.756Z,7.80
2023-04-29T06:04:49.887Z,7.80
2023-04-29T06:07:19.577Z,7.70
2023-04-29T06:09:47.317Z,7.80
2023-04-29T06:12:14.220Z,7.80
2023-04-29T06:14:41.042Z,7.80
2023-04-29T06:17:08.037Z,7.80
2023-04-29T06:19:35.029Z,7.80
2023-04-29T06:22:01.786Z,7.80
2023-04-29T06:24:28.573Z,7.90
2023-04-29T06:26:55.392Z,7.80
2023-04-29T06:29:22.710Z,7.80
2023-04-29T06:31:49.566Z,7.80
2023-04-29T06:34:16.512Z,7.90
2023-04-29T06:36:43.385Z,7.90
2023-04-29T06:39:10.198Z,7.90
2023-04-29T06:41:37.112Z,7.90
2023-04-29T06:44:04.016Z,8.00
2023-04-29T06:46:30.919Z,8.00
2023-04-29T06:48:57.772Z,8.00
2023-04-29T06:51:24.961Z,8.00
2023-04-29T06:53:51.865Z,8.10
2023-04-29T06:56:18.882Z,8.10
2023-04-29T06:58:45.704Z,8.20
2023-04-29T07:01:12.587Z,8.30
2023-04-29T07:03:39.503Z,8.50
2023-04-29T07:06:06.647Z,8.60
2023-04-29T07:08:33.562Z,8.80
2023-04-29T07:11:00.385Z,8.90
2023-04-29T07:13:27.276Z,9.10
2023-04-29T07:15:54.261Z,9.40
2023-04-29T07:18:21.118Z,9.60
2023-04-29T07:20:48.183Z,9.60
2023-04-29T07:23:15.420Z,9.60
2023-04-29T07:25:42.277Z,9.70
2023-04-29T07:28:09.413Z,9.70
2023-04-29T07:30:36.499Z,9.80
2023-04-29T07:33:04.433Z,10.00
2023-04-29T07:35:31.760Z,10.30
2023-04-29T07:37:58.642Z,10.50
2023-04-29T07:40:25.558Z,10.70
2023-04-29T07:42:52.442Z,10.80
2023-04-29T07:45:19.289Z,10.90
2023-04-29T07:47:46.306Z,11.10
2023-04-29T07:50:13.389Z,11.40
2023-04-29T07:52:40.237Z,11.60
2023-04-29T07:55:07.354Z,11.90
2023-04-29T07:57:34.094Z,12.20
2023-04-29T08:00:00.969Z,12.40
2023-04-29T08:02:27.957Z,12.90
2023-04-29T08:04:56.101Z,14.00
2023-04-29T08:07:23.646Z,14.70
2023-04-29T08:09:50.432Z,15.00
2023-04-29T08:12:17.428Z,15.10
2023-04-29T08:14:44.225Z,15.50
2023-04-29T08:17:11.316Z,15.80
2023-04-29T08:19:38.255Z,15.70
2023-04-29T08:22:05.098Z,15.40
2023-04-29T08:24:33.695Z,15.20
2023-04-29T08:27:01.385Z,15.70
2023-04-29T08:29:28.147Z,16.50
2023-04-29T08:31:55.410Z,17.50
2023-04-29T08:34:22.253Z,18.20
2023-04-29T08:36:49.134Z,18.60
2023-04-29T08:39:15.933Z,19.00
2023-04-29T08:41:45.572Z,19.10
2023-04-29T08:44:12.366Z,19.40
2023-04-29T08:46:39.503Z,19.50
2023-04-29T08:49:07.090Z,19.50
2023-04-29T08:51:34.907Z,19.60
2023-04-29T08:54:01.812Z,19.10
2023-04-29T08:56:31.005Z,19.10
2023-04-29T08:58:58.971Z,18.00
2023-04-29T09:01:29.171Z,17.90
2023-04-29T09:04:23.942Z,17.50
2023-04-29T09:06:51.739Z,18.00
2023-04-29T09:09:20.761Z,18.30
2023-04-29T09:11:47.916Z,17.50
2023-04-29T09:14:15.269Z,17.20
2023-04-29T09:16:42.220Z,17.70
2023-04-29T09:19:09.037Z,18.10
2023-04-29T09:21:35.937Z,18.80
2023-04-29T09:24:04.038Z,18.80
2023-04-29T09:26:42.992Z,18.70
2023-04-29T09:29:16.285Z,19.80
2023-04-29T09:31:43.337Z,20.30
2023-04-29T09:34:14.267Z,20.40
2023-04-29T09:36:42.058Z,19.70
2023-04-29T09:39:13.394Z,20.30
2023-04-29T09:41:50.547Z,20.00
2023-04-29T09:44:17.381Z,19.80
2023-04-29T09:46:44.558Z,20.70
2023-04-29T09:49:25.226Z,21.00
2023-04-29T09:51:56.186Z,21.10
2023-04-29T09:54:33.791Z,21.10
2023-04-29T09:57:02.696Z,20.50
2023-04-29T09:59:29.464Z,21.50
2023-04-29T10:01:58.592Z,21.40
2023-04-29T10:04:27.513Z,20.70
2023-04-29T10:06:55.982Z,20.30
2023-04-29T10:09:23.887Z,19.40
2023-04-29T10:11:52.963Z,19.90
2023-04-29T10:14:22.256Z,19.30
2023-04-29T10:16:58.992Z,19.30
2023-04-29T10:19:38.595Z,19.70
2023-04-29T10:22:09.119Z,20.00
2023-04-29T10:24:40.239Z,20.00
2023-04-29T10:27:15.132Z,19.60
2023-04-29T10:29:44.504Z,19.80
2023-04-29T10:32:14.323Z,20.40
2023-04-29T10:34:42.449Z,20.10
2023-04-29T10:37:11.647Z,20.20
2023-04-29T10:39:49.031Z,20.40
2023-04-29T10:42:42.195Z,21.40
2023-04-29T10:45:27.501Z,21.10
2023-04-29T10:48:06.451Z,21.30
2023-04-29T10:50:34.776Z,21.60
2023-04-29T10:53:05.592Z,21.50
2023-04-29T10:55:40.436Z,21.80
2023-04-29T10:58:36.074Z,22.20
2023-04-29T11:01:03.414Z,22.40
2023-04-29T11:03:46.726Z,21.40
2023-04-29T11:06:13.643Z,21.80
2023-04-29T11:08:40.924Z,22.40
2023-04-29T11:11:07.977Z,23.10
2023-04-29T11:13:39.626Z,23.20
2023-04-29T11:16:09.519Z,22.40
2023-04-29T11:18:37.896Z,22.80
2023-04-29T11:21:04.691Z,22.30
2023-04-29T11:23:38.760Z,22.90
2023-04-29T11:26:05.680Z,23.00
2023-04-29T11:28:32.909Z,22.80
2023-04-29T11:31:00.790Z,22.50
2023-04-29T11:33:28.260Z,22.10
2023-04-29T11:35:55.917Z,22.40
2023-04-29T11:38:27.072Z,22.60
2023-04-29T11:40:56.226Z,22.60
2023-04-29T11:43:26.196Z,22.60
2023-04-29T11:45:53.978Z,22.50
2023-04-29T11:48:25.868Z,22.30
2023-04-29T11:50:57.040Z,23.30
2023-04-29T11:53:29.450Z,23.50
2023-04-29T11:55:57.039Z,23.60
2023-04-29T11:58:24.791Z,23.10
2023-04-29T12:00:54.643Z,23.70
2023-04-29T12:03:21.852Z,23.40
2023-04-29T12:05:56.681Z,23.20
2023-04-29T12:08:26.424Z,23.70
2023-04-29T12:10:57.819Z,22.70
2023-04-29T12:13:29.745Z,23.20
2023-04-29T12:15:58.138Z,22.80
2023-04-29T12:18:25.754Z,22.80
2023-04-29T12:20:52.641Z,23.20
2023-04-29T12:23:24.313Z,24.40
2023-04-29T12:25:56.828Z,24.10
2023-04-29T12:28:24.440Z,22.50
2023-04-29T12:30:54.195Z,22.70
2023-04-29T12:33:26.766Z,22.20
2023-04-29T12:35:57.856Z,21.20
2023-04-29T12:38:31.970Z,20.50
2023-04-29T12:41:01.209Z,21.40
2023-04-29T12:43:31.961Z,21.90
2023-04-29T12:46:07.963Z,21.80
2023-04-29T12:48:41.498Z,22.20
2023-04-29T12:51:10.459Z,22.40
2023-04-29T12:53:37.888Z,23.10
2023-04-29T12:56:06.237Z,22.20
2023-04-29T12:58:34.828Z,21.30
2023-04-29T13:01:01.793Z,21.00
2023-04-29T13:03:28.953Z,21.20
2023-04-29T13:05:56.121Z,21.30
2023-04-29T13:08:23.135Z,21.00
2023-04-29T13:10:50.102Z,20.80
2023-04-29T13:13:16.900Z,20.60
2023-04-29T13:15:43.734Z,19.50
2023-04-29T13:18:10.582Z,19.30
2023-04-29T13:20:41.668Z,20.00
2023-04-29T13:23:09.673Z,19.70
2023-04-29T13:25:36.477Z,19.40
2023-04-29T13:28:05.371Z,19.10
2023-04-29T13:30:33.021Z,19.70
2023-04-29T13:33:07.936Z,19.50
2023-04-29T13:35:40.009Z,19.50
2023-04-29T13:38:07.127Z,19.10
2023-04-29T13:40:38.892Z,19.10
2023-04-29T13:43:09.819Z,19.20
2023-04-29T13:45:41.263Z,19.00
2023-04-29T13:48:26.204Z,18.80
2023-04-29T13:51:23.369Z,18.60
2023-04-29T13:59:31.560Z,19.20
2023-04-29T14:04:01.227Z,19.40
2023-04-29T14:06:28.515Z,18.50
2023-04-29T14:08:55.410Z,18.50
2023-04-29T14:11:22.244Z,18.40
2023-04-29T14:13:49.093Z,18.20
2023-04-29T14:16:17.091Z,18.00
2023-04-29T14:18:43.889Z,17.90
2023-04-29T14:21:11.422Z,17.90
2023-04-29T14:23:38.372Z,17.70
2023-04-29T14:26:26.541Z,18.00
2023-04-29T14:28:57.637Z,18.20
2023-04-29T14:31:31.755Z,17.80
2023-04-29T14:33:59.168Z,18.30
2023-04-29T14:36:26.810Z,18.60
2023-04-29T14:38:53.974Z,18.50
2023-04-29T14:41:23.439Z,18.20
2023-04-29T14:43:50.361Z,18.40
2023-04-29T14:46:17.436Z,18.30
2023-04-29T14:48:44.512Z,17.90
2023-04-29T14:51:11.842Z,18.40
2023-04-29T14:53:39.027Z,18.30
2023-04-29T14:56:06.250Z,18.20
2023-04-29T14:58:33.014Z,17.90
2023-04-29T15:01:10.210Z,18.00
2023-04-29T15:03:43.643Z,17.80
2023-04-29T15:06:11.772Z,17.60
2023-04-29T15:08:38.546Z,17.70
2023-04-29T15:11:05.574Z,17.50
2023-04-29T15:13:32.582Z,17.20
2023-04-29T15:15:59.465Z,17.60
2023-04-29T15:18:26.699Z,18.20
2023-04-29T15:20:53.857Z,18.30
2023-04-29T15:23:20.631Z,17.80
2023-04-29T15:25:47.632Z,17.40
2023-04-29T15:30:48.098Z,17.70
2023-04-29T15:33:14.986Z,17.50
2023-04-29T15:35:41.853Z,16.80
2023-04-29T15:38:09.135Z,16.70
2023-04-29T15:40:35.963Z,16.20
2023-04-29T15:43:02.879Z,15.80
2023-04-29T15:45:29.746Z,15.40
2023-04-29T15:47:56.544Z,15.20
2023-04-29T15:50:23.587Z,15.10
2023-04-29T15:52:55.035Z,14.90
2023-04-29T15:55:22.318Z,14.70
2023-04-29T15:57:51.425Z,14.70
2023-04-29T16:00:18.995Z,14.50
2023-04-29T16:02:45.890Z,14.50
2023-04-29T16:05:12.719Z,14.40
2023-04-29T16:07:39.529Z,14.20
2023-04-29T16:10:06.681Z,14.10
2023-04-29T16:12:33.957Z,14.00
2023-04-29T16:15:00.891Z,14.60
2023-04-29T16:17:28.482Z,14.90
2023-04-29T16:19:55.750Z,15.00
2023-04-29T16:22:22.625Z,14.80
2023-04-29T16:24:50.053Z,14.80
2023-04-29T16:27:17.686Z,14.70
2023-04-29T16:29:44.476Z,14.60
2023-04-29T16:32:11.539Z,14.50
2023-04-29T16:34:38.342Z,14.60
2023-04-29T16:37:05.208Z,14.70
2023-04-29T16:39:31.998Z,14.80
2023-04-29T16:41:59.653Z,14.80
2023-04-29T16:44:26.498Z,14.90
2023-04-29T16:46:53.566Z,14.80
2023-04-29T16:49:29.414Z,14.70
2023-04-29T16:51:56.487Z,14.70
2023-04-29T16:54:23.916Z,14.60
2023-04-29T16:56:51.306Z,14.40
2023-04-29T16:59:18.258Z,14.30
2023-04-29T17:01:45.352Z,14.20
2023-04-29T17:04:12.290Z,13.80
2023-04-29T17:06:40.631Z,13.80
2023-04-29T17:09:07.792Z,13.90
2023-04-29T17:11:34.678Z,13.80
2023-04-29T17:14:01.541Z,13.80
2023-04-29T17:16:29.919Z,13.70
2023-04-29T17:18:57.139Z,13.60
2023-04-29T17:21:25.666Z,13.20
2023-04-29T17:23:53.316Z,13.00
2023-04-29T17:26:21.217Z,12.80
2023-04-29T17:28:48.452Z,12.50
2023-04-29T17:31:15.603Z,12.40
2023-04-29T17:33:54.651Z,12.20
2023-04-29T17:36:23.885Z,12.00
2023-04-29T17:38:50.636Z,11.90
2023-04-29T17:41:17.434Z,11.80
2023-04-29T17:43:44.256Z,11.70
2023-04-29T17:46:11.071Z,11.60
2023-04-29T17:48:37.940Z,11.50
2023-04-29T17:51:04.966Z,11.40
2023-04-29T17:53:33.091Z,11.40
2023-04-29T17:55:59.971Z,11.30
2023-04-29T17:58:29.005Z,11.20
2023-04-29T18:00:56.766Z,11.10
2023-04-29T18:03:23.877Z,11.00
2023-04-29T18:05:50.907Z,11.00
2023-04-29T18:08:17.621Z,10.90
2023-04-29T18:10:44.446Z,10.70
2023-04-29T18:13:11.255Z,10.70
2023-04-29T18:15:38.149Z,10.60
2023-04-29T18:18:05.054Z,10.50
2023-04-29T18:20:31.964Z,10.30
2023-04-29T18:22:58.771Z,10.30
2023-04-29T18:25:26.345Z,10.20
2023-04-29T18:28:00.108Z,10.10
2023-04-29T18:30:40.568Z,10.00
2023-04-29T18:33:07.514Z,10.00
2023-04-29T18:35:35.016Z,9.90
2023-04-29T18:38:02.406Z,9.80
2023-04-29T18:40:29.204Z,9.70
2023-04-29T18:42:55.933Z,9.60
2023-04-29T18:45:22.891Z,9.60
2023-04-29T18:47:49.770Z,9.50
2023-04-29T18:50:17.030Z,9.40
2023-04-29T18:52:43.807Z,9.30
2023-04-29T18:55:11.114Z,9.30
2023-04-29T18:57:37.869Z,9.20
2023-04-29T19:00:06.083Z,9.10
2023-04-29T19:02:32.892Z,9.00
2023-04-29T19:05:02.571Z,8.90
2023-04-29T19:07:29.618Z,8.80
2023-04-29T19:09:56.772Z,8.80
2023-04-29T19:12:25.520Z,8.70
2023-04-29T19:14:52.322Z,8.70
2023-04-29T19:17:19.194Z,8.60
2023-04-29T19:19:45.938Z,8.60
2023-04-29T19:22:12.810Z,8.50
2023-04-29T19:27:07.992Z,8.50
2023-04-29T19:29:34.863Z,8.30
2023-04-29T19:32:01.716Z,8.30
2023-04-29T19:34:28.511Z,8.30
2023-04-29T19:36:56.798Z,8.30
2023-04-29T19:39:23.664Z,8.30
2023-04-29T19:41:50.530Z,8.30
2023-04-29T19:44:17.346Z,8.30
2023-04-29T19:46:44.311Z,8.30
2023-04-29T19:49:12.754Z,8.30
2023-04-29T19:51:40.826Z,8.20
2023-04-29T19:54:07.622Z,8.20
2023-04-29T19:56:34.424Z,8.20
2023-04-29T19:59:01.180Z,8.20
2023-04-29T20:01:28.047Z,8.10
2023-04-29T20:03:54.803Z,8.10
2023-04-29T20:06:21.672Z,8.00
2023-04-29T20:08:48.546Z,8.00
2023-04-29T20:11:17.630Z,8.00
2023-04-29T20:13:44.766Z,7.90
2023-04-29T20:16:11.711Z,7.90
2023-04-29T20:18:40.701Z,7.80
2023-04-29T20:21:07.704Z,7.80
2023-04-29T20:23:34.474Z,7.80
2023-04-29T20:26:01.481Z,7.70
2023-04-29T20:28:28.302Z,7.70
2023-04-29T20:30:55.090Z,7.60
2023-04-29T20:33:21.941Z,7.60
2023-04-29T20:35:48.710Z,7.50
2023-04-29T20:38:15.578Z,7.50
2023-04-29T20:40:43.382Z,7.40
2023-04-29T20:43:10.782Z,7.40
2023-04-29T20:45:38.128Z,7.40
2023-04-29T20:48:05.617Z,7.30
2023-04-29T20:50:32.456Z,7.20
2023-04-29T20:52:59.314Z,7.20
2023-04-29T20:55:26.236Z,7.20
2023-04-29T20:57:52.993Z,7.10
2023-04-29T21:00:19.773Z,7.10
2023-04-29T21:02:46.816Z,7.10
2023-04-29T21:05:13.695Z,7.00
2023-04-29T21:07:40.651Z,7.00
2023-04-29T21:10:07.862Z,7.00
2023-04-29T21:12:34.564Z,6.90
2023-04-29T21:15:01.346Z,6.90
2023-04-29T21:17:28.809Z,6.90
2023-04-29T21:19:56.630Z,6.80
2023-04-29T21:22:23.371Z,6.80
2023-04-29T21:24:50.181Z,6.80
2023-04-29T21:27:17.282Z,6.70
2023-04-29T21:29:44.054Z,6.70
2023-04-29T21:32:10.817Z,6.70
2023-04-29T21:34:37.529Z,6.60
2023-04-29T21:37:04.744Z,6.60
2023-04-29T21:39:32.217Z,6.50
2023-04-29T21:42:00.744Z,6.40
2023-04-29T21:44:27.626Z,6.40
2023-04-29T21:46:54.611Z,6.40
2023-04-29T21:49:21.398Z,6.40
2023-04-29T21:51:48.482Z,6.40
2023-04-29T21:54:15.559Z,6.40
2023-04-29T21:56:42.535Z,6.40
2023-04-29T21:59:09.285Z,6.40
2023-04-29T22:01:44.976Z,6.30
2023-04-29T22:04:11.887Z,6.30
2023-04-29T22:06:38.856Z,6.30
2023-04-29T22:09:07.240Z,6.20
2023-04-29T22:11:34.142Z,6.20
2023-04-29T22:14:00.947Z,6.10
2023-04-29T22:16:27.807Z,6.00
2023-04-29T22:18:57.395Z,5.90
2023-04-29T22:21:24.231Z,5.90
2023-04-29T22:23:51.152Z,5.80
2023-04-29T22:26:18.601Z,5.80
2023-04-29T22:28:45.498Z,5.80
2023-04-29T22:31:12.292Z,5.70
2023-04-29T22:33:39.105Z,5.60
2023-04-29T22:36:06.382Z,5.60
2023-04-29T22:38:33.216Z,5.50
2023-04-29T22:40:59.998Z,5.40
2023-04-29T22:43:26.791Z,5.40
2023-04-29T22:45:54.602Z,5.30
2023-04-29T22:48:21.706Z,5.20
2023-04-29T22:50:57.170Z,5.20
2023-04-29T22:53:23.997Z,5.10
2023-04-29T22:55:55.078Z,5.10
2023-04-29T22:58:22.549Z,5.00
2023-04-29T23:00:54.883Z,5.00
2023-04-29T23:03:21.755Z,5.00
2023-04-29T23:05:48.789Z,4.90
2023-04-29T23:08:15.740Z,4.90
2023-04-29T23:10:49.024Z,4.80
2023-04-29T23:13:16.733Z,4.80
2023-04-29T23:15:43.934Z,4.70
2023-04-29T23:18:11.053Z,4.70
2023-04-29T23:20:38.195Z,4.60
2023-04-29T23:23:05.190Z,4.50
2023-04-29T23:25:31.946Z,4.50
2023-04-29T23:27:58.717Z,4.50
2023-04-29T23:30:25.660Z,4.40
2023-04-29T23:32:52.455Z,4.40
2023-04-29T23:35:19.326Z,4.40
2023-04-29T23:37:46.082Z,4.30
2023-04-29T23:40:12.836Z,4.30
2023-04-29T23:42:39.636Z,4.30
2023-04-29T23:45:07.361Z,4.20
2023-04-29T23:47:34.188Z,4.20
2023-04-29T23:50:00.932Z,4.10
2023-04-29T23:52:27.761Z,4.10
2023-04-29T23:54:54.482Z,4.10
2023-04-29T23:57:21.395Z,4.10
2023-04-29T23:59:48.106Z,4.10
